createdAt,value
2023-04-22T00:00:15.265Z,9.94
2023-04-22T00:02:27.442Z,8.33
2023-04-22T00:04:39.655Z,7.69
2023-04-22T00:06:51.520Z,5.75
2023-04-22T00:09:03.608Z,7.36
2023-04-22T00:11:15.705Z,13.81
2023-04-22T00:13:27.788Z,7.69
2023-04-22T00:15:40.902Z,7.36
2023-04-22T00:17:53.177Z,8.65
2023-04-22T00:20:05.034Z,4.14
2023-04-22T00:22:17.129Z,14.45
2023-04-22T00:24:30.654Z,6.72
2023-04-22T00:26:41.283Z,2.85
2023-04-22T00:28:53.380Z,2.53
2023-04-22T00:31:07.006Z,6.40
2023-04-22T00:33:19.197Z,12.52
2023-04-22T00:35:31.163Z,7.36
2023-04-22T00:37:43.265Z,1.56
2023-04-22T00:39:55.321Z,12.52
2023-04-22T00:42:07.488Z,4.46
2023-04-22T00:44:20.458Z,12.52
2023-04-22T00:46:31.684Z,1.24
2023-04-22T00:48:43.747Z,7.36
2023-04-22T00:50:55.811Z,1.56
2023-04-22T00:53:07.888Z,7.36
2023-04-22T00:55:19.967Z,7.04
2023-04-22T00:57:32.040Z,7.04
2023-04-22T00:59:44.151Z,7.04
2023-04-22T01:01:56.271Z,2.21
2023-04-22T01:04:09.356Z,7.36
2023-04-22T01:06:20.377Z,7.69
2023-04-22T01:08:32.464Z,12.84
2023-04-22T01:10:45.487Z,7.69
2023-04-22T01:12:56.598Z,7.36
2023-04-22T01:15:08.714Z,5.43
2023-04-22T01:17:22.721Z,7.36
2023-04-22T01:19:33.836Z,7.69
2023-04-22T01:21:47.826Z,7.36
2023-04-22T01:23:59.122Z,10.59
2023-04-22T01:26:11.080Z,8.33
2023-04-22T01:28:23.153Z,7.04
2023-04-22T01:30:35.243Z,1.88
2023-04-22T01:32:47.370Z,7.69
2023-04-22T01:35:00.307Z,7.69
2023-04-22T01:37:11.486Z,8.97
2023-04-22T01:39:23.574Z,13.16
2023-04-22T01:41:35.658Z,12.20
2023-04-22T01:43:47.805Z,7.69
2023-04-22T01:45:59.851Z,8.01
2023-04-22T01:48:12.830Z,8.97
2023-04-22T01:50:23.966Z,8.33
2023-04-22T01:52:36.056Z,3.17
2023-04-22T01:54:48.168Z,8.01
2023-04-22T01:57:00.241Z,3.50
2023-04-22T01:59:12.827Z,8.65
2023-04-22T02:01:25.404Z,8.97
2023-04-22T02:03:38.417Z,14.13
2023-04-22T02:05:49.567Z,8.65
2023-04-22T02:08:01.626Z,2.85
2023-04-22T02:10:13.706Z,3.82
2023-04-22T02:12:25.813Z,8.65
2023-04-22T02:14:39.757Z,8.97
2023-04-22T02:16:50.986Z,8.33
2023-04-22T02:19:04.866Z,2.21
2023-04-22T02:21:16.964Z,7.69
2023-04-22T02:23:29.933Z,11.87
2023-04-22T02:25:42.029Z,7.69
2023-04-22T02:27:53.214Z,8.01
2023-04-22T02:30:05.277Z,12.52
2023-04-22T02:32:17.368Z,13.49
2023-04-22T02:34:29.434Z,13.49
2023-04-22T02:36:41.524Z,7.36
2023-04-22T02:38:55.504Z,3.17
2023-04-22T02:41:05.685Z,5.11
2023-04-22T02:43:18.740Z,7.69
2023-04-22T02:45:30.827Z,11.87
2023-04-22T02:47:42.995Z,7.69
2023-04-22T02:49:55.894Z,7.69
2023-04-22T02:52:08.611Z,6.72
2023-04-22T02:54:22.162Z,7.36
2023-04-22T02:56:34.746Z,6.72
2023-04-22T02:58:46.821Z,6.72
2023-04-22T03:00:58.980Z,7.04
2023-04-22T03:03:11.059Z,9.94
2023-04-22T03:05:23.995Z,1.88
2023-04-22T03:07:35.125Z,12.84
2023-04-22T03:09:47.286Z,7.69
2023-04-22T03:11:59.391Z,9.94
2023-04-22T03:14:11.448Z,12.84
2023-04-22T03:16:24.565Z,6.40
2023-04-22T03:18:36.167Z,7.36
2023-04-22T03:20:47.667Z,12.84
2023-04-22T03:22:59.791Z,7.36
2023-04-22T03:25:12.820Z,-4.24
2023-04-22T03:27:23.929Z,7.04
2023-04-22T03:29:38.382Z,4.46
2023-04-22T03:31:49.745Z,6.07
2023-04-22T03:34:01.728Z,7.36
2023-04-22T03:36:14.658Z,7.36
2023-04-22T03:38:25.844Z,0.92
2023-04-22T03:40:37.941Z,1.88
2023-04-22T03:42:50.010Z,1.88
2023-04-22T03:45:02.124Z,2.85
2023-04-22T03:47:14.200Z,7.36
2023-04-22T03:49:26.262Z,0.60
2023-04-22T03:51:38.366Z,7.04
2023-04-22T03:53:50.422Z,0.92
2023-04-22T03:56:03.438Z,6.72
2023-04-22T03:58:14.618Z,10.59
2023-04-22T04:00:27.583Z,2.21
2023-04-22T04:02:38.966Z,12.20
2023-04-22T04:04:51.220Z,7.04
2023-04-22T04:07:02.969Z,1.56
2023-04-22T04:09:15.031Z,6.07
2023-04-22T04:11:29.519Z,7.04
2023-04-22T04:13:41.646Z,6.72
2023-04-22T04:15:52.867Z,6.40
2023-04-22T04:18:04.944Z,6.72
2023-04-22T04:20:17.012Z,1.56
2023-04-22T04:22:29.103Z,5.43
2023-04-22T04:24:42.405Z,5.43
2023-04-22T04:26:54.111Z,7.04
2023-04-22T04:29:05.375Z,13.16
2023-04-22T04:31:18.402Z,7.04
2023-04-22T04:33:30.489Z,6.72
2023-04-22T04:35:44.958Z,6.40
2023-04-22T04:37:57.685Z,1.88
2023-04-22T04:40:09.196Z,6.40
2023-04-22T04:42:21.259Z,10.59
2023-04-22T04:44:33.341Z,6.07
2023-04-22T04:46:46.981Z,6.72
2023-04-22T04:48:59.007Z,7.04
2023-04-22T04:51:11.124Z,11.87
2023-04-22T04:53:23.164Z,7.36
2023-04-22T04:55:36.233Z,12.20
2023-04-22T04:57:49.817Z,7.36
2023-04-22T05:00:01.930Z,12.84
2023-04-22T05:02:14.100Z,7.69
2023-04-22T05:04:26.354Z,8.01
2023-04-22T05:06:39.043Z,7.69
2023-04-22T05:08:50.231Z,7.69
2023-04-22T05:11:02.340Z,7.69
2023-04-22T05:13:14.417Z,13.81
2023-04-22T05:15:26.480Z,13.81
2023-04-22T05:17:38.609Z,7.69
2023-04-22T05:19:50.633Z,2.85
2023-04-22T05:22:03.235Z,8.33
2023-04-22T05:24:15.372Z,12.84
2023-04-22T05:26:26.891Z,8.01
2023-04-22T05:28:38.971Z,12.52
2023-04-22T05:30:52.041Z,8.33
2023-04-22T05:33:04.148Z,9.30
2023-04-22T05:35:16.221Z,8.97
2023-04-22T05:37:28.287Z,8.65
2023-04-22T05:39:42.833Z,8.65
2023-04-22T05:41:53.933Z,8.33
2023-04-22T05:44:06.030Z,8.97
2023-04-22T05:46:18.674Z,5.75
2023-04-22T05:48:31.132Z,9.30
2023-04-22T05:50:42.251Z,8.65
2023-04-22T05:52:54.326Z,9.94
2023-04-22T05:55:07.422Z,14.13
2023-04-22T05:57:20.411Z,9.62
2023-04-22T05:59:31.576Z,10.26
2023-04-22T06:01:43.660Z,9.62
2023-04-22T06:03:55.951Z,9.30
2023-04-22T06:06:07.808Z,6.40
2023-04-22T06:08:19.910Z,5.75
2023-04-22T06:10:31.987Z,9.62
2023-04-22T06:12:45.051Z,9.62
2023-04-22T06:14:57.133Z,8.33
2023-04-22T06:17:10.111Z,10.59
2023-04-22T06:19:21.330Z,5.11
2023-04-22T06:21:33.696Z,9.94
2023-04-22T06:23:45.825Z,6.40
2023-04-22T06:25:58.851Z,11.55
2023-04-22T06:28:09.976Z,10.59
2023-04-22T06:30:22.097Z,14.78
2023-04-22T06:32:36.059Z,10.91
2023-04-22T06:34:47.249Z,10.26
2023-04-22T06:37:00.313Z,10.59
2023-04-22T06:39:13.895Z,10.59
2023-04-22T06:41:24.528Z,10.59
2023-04-22T06:43:36.556Z,11.23
2023-04-22T06:45:49.538Z,14.45
2023-04-22T06:48:00.755Z,15.42
2023-04-22T06:50:12.823Z,7.04
2023-04-22T06:52:24.886Z,16.39
2023-04-22T06:54:36.950Z,6.72
2023-04-22T06:56:49.038Z,14.78
2023-04-22T06:59:01.118Z,10.59
2023-04-22T07:01:13.792Z,9.94
2023-04-22T07:03:26.448Z,14.45
2023-04-22T07:05:39.800Z,12.20
2023-04-22T07:07:50.417Z,11.87
2023-04-22T07:10:02.513Z,8.33
2023-04-22T07:12:14.593Z,11.55
2023-04-22T07:14:27.664Z,11.87
2023-04-22T07:16:38.834Z,11.23
2023-04-22T07:18:50.826Z,11.55
2023-04-22T07:21:02.891Z,7.36
2023-04-22T07:23:14.968Z,16.06
2023-04-22T07:25:27.058Z,15.74
2023-04-22T07:27:39.694Z,9.30
2023-04-22T07:29:52.318Z,8.33
2023-04-22T07:32:05.997Z,12.84
2023-04-22T07:34:18.968Z,12.20
2023-04-22T07:36:36.484Z,11.87
2023-04-22T07:38:49.141Z,12.52
2023-04-22T07:41:02.796Z,12.52
2023-04-22T07:43:18.357Z,8.97
2023-04-22T07:45:31.435Z,16.39
2023-04-22T07:47:48.035Z,13.16
2023-04-22T07:50:00.665Z,16.71
2023-04-22T07:52:16.314Z,13.49
2023-04-22T07:54:36.515Z,16.39
2023-04-22T07:56:45.421Z,14.13
2023-04-22T07:58:59.073Z,13.16
2023-04-22T08:01:12.189Z,18.64
2023-04-22T08:03:27.808Z,14.45
2023-04-22T08:05:40.798Z,13.16
2023-04-22T08:07:52.448Z,9.62
2023-04-22T08:10:06.114Z,13.49
2023-04-22T08:12:19.296Z,11.23
2023-04-22T08:14:31.309Z,13.16
2023-04-22T08:16:43.466Z,13.49
2023-04-22T08:20:23.696Z,13.49
2023-04-22T08:22:36.290Z,13.81
2023-04-22T08:25:11.550Z,13.81
2023-04-22T08:27:05.725Z,12.84
2023-04-22T08:29:20.147Z,17.35
2023-04-22T08:31:34.418Z,13.16
2023-04-22T08:33:48.307Z,13.81
2023-04-22T08:36:04.478Z,13.81
2023-04-22T08:38:22.183Z,12.84
2023-04-22T08:40:35.886Z,15.10
2023-04-22T08:42:49.441Z,13.81
2023-04-22T08:45:04.115Z,13.16
2023-04-22T08:47:18.641Z,10.26
2023-04-22T08:49:30.225Z,13.81
2023-04-22T08:51:43.271Z,14.13
2023-04-22T08:53:56.866Z,13.81
2023-04-22T08:56:12.038Z,18.64
2023-04-22T08:58:51.577Z,17.03
2023-04-22T09:00:40.624Z,13.49
2023-04-22T09:02:54.357Z,13.49
2023-04-22T09:05:07.161Z,17.68
2023-04-22T09:07:19.839Z,17.35
2023-04-22T09:09:32.052Z,14.78
2023-04-22T09:11:45.570Z,10.91
2023-04-22T09:13:57.624Z,13.49
2023-04-22T09:16:10.251Z,14.45
2023-04-22T09:18:21.812Z,14.45
2023-04-22T09:20:34.405Z,15.10
2023-04-22T09:22:45.979Z,17.68
2023-04-22T09:25:04.938Z,12.52
2023-04-22T09:27:19.635Z,12.20
2023-04-22T09:29:36.220Z,11.87
2023-04-22T09:31:51.885Z,13.16
2023-04-22T09:34:07.387Z,15.74
2023-04-22T09:36:20.413Z,16.39
2023-04-22T09:38:44.885Z,18.64
2023-04-22T09:40:56.047Z,15.74
2023-04-22T09:43:09.122Z,15.74
2023-04-22T09:45:22.722Z,16.39
2023-04-22T09:47:34.771Z,16.39
2023-04-22T09:49:48.378Z,17.35
2023-04-22T09:52:00.463Z,16.71
2023-04-22T09:54:14.037Z,9.30
2023-04-22T09:56:27.032Z,19.29
2023-04-22T09:58:38.184Z,19.29
2023-04-22T10:00:51.318Z,16.71
2023-04-22T10:03:03.510Z,16.71
2023-04-22T10:05:16.450Z,13.81
2023-04-22T10:07:28.582Z,19.29
2023-04-22T10:09:42.211Z,17.03
2023-04-22T10:11:55.715Z,17.35
2023-04-22T10:14:09.664Z,16.71
2023-04-22T10:16:21.727Z,18.32
2023-04-22T10:18:36.226Z,17.35
2023-04-22T10:20:47.372Z,19.61
2023-04-22T10:23:00.969Z,17.68
2023-04-22T10:25:15.387Z,17.03
2023-04-22T10:27:27.474Z,17.35
2023-04-22T10:29:39.152Z,17.68
2023-04-22T10:31:50.742Z,17.68
2023-04-22T10:34:06.326Z,17.68
2023-04-22T10:36:18.451Z,14.78
2023-04-22T10:38:32.928Z,15.10
2023-04-22T10:40:44.126Z,18.00
2023-04-22T10:42:56.219Z,18.00
2023-04-22T10:45:12.669Z,14.78
2023-04-22T10:47:24.945Z,18.64
2023-04-22T10:49:53.939Z,20.58
2023-04-22T10:51:59.785Z,20.25
2023-04-22T10:54:14.775Z,17.68
2023-04-22T10:56:51.740Z,18.00
2023-04-22T10:57:33.206Z,18.32
2023-04-22T10:59:50.078Z,18.32
2023-04-22T11:02:05.071Z,18.00
2023-04-22T11:04:20.798Z,18.32
2023-04-22T11:06:37.030Z,18.32
2023-04-22T11:08:55.110Z,18.64
2023-04-22T11:11:08.169Z,20.58
2023-04-22T11:13:29.148Z,15.74
2023-04-22T11:15:39.977Z,16.71
2023-04-22T11:18:00.994Z,16.06
2023-04-22T11:20:11.175Z,18.32
2023-04-22T11:22:29.078Z,18.96
2023-04-22T11:24:42.157Z,17.35
2023-04-22T11:26:58.270Z,16.39
2023-04-22T11:29:12.907Z,21.22
2023-04-22T11:31:26.009Z,17.03
2023-04-22T11:33:41.510Z,18.32
2023-04-22T11:35:57.994Z,18.96
2023-04-22T11:38:13.731Z,21.22
2023-04-22T11:40:33.182Z,16.71
2023-04-22T11:42:47.410Z,18.96
2023-04-22T11:45:02.488Z,17.35
2023-04-22T11:47:42.800Z,16.71
2023-04-22T11:49:35.129Z,16.39
2023-04-22T11:51:49.380Z,21.54
2023-04-22T11:54:36.518Z,18.64
2023-04-22T11:56:20.571Z,18.64
2023-04-22T11:58:36.043Z,18.96
2023-04-22T12:00:52.551Z,18.96
2023-04-22T12:03:08.313Z,20.90
2023-04-22T12:07:14.303Z,19.29
2023-04-22T12:24:59.294Z,18.96
2023-04-22T12:28:26.260Z,17.68
2023-04-22T12:31:49.018Z,18.32
2023-04-22T12:48:43.114Z,17.68
2023-04-22T12:52:46.640Z,18.00
2023-04-22T12:54:47.531Z,20.58
2023-04-22T12:56:45.643Z,20.25
2023-04-22T12:59:15.590Z,20.58
2023-04-22T13:01:22.609Z,17.68
2023-04-22T13:06:36.449Z,17.35
2023-04-22T13:15:12.922Z,17.68
2023-04-22T13:17:10.550Z,18.00
2023-04-22T13:19:14.607Z,19.29
2023-04-22T13:21:27.624Z,15.42
2023-04-22T13:23:40.286Z,17.68
2023-04-22T13:25:52.369Z,17.35
2023-04-22T13:28:05.982Z,17.35
2023-04-22T13:30:18.016Z,16.39
2023-04-22T13:32:30.117Z,17.35
2023-04-22T13:34:44.693Z,17.35
2023-04-22T13:36:55.787Z,17.03
2023-04-22T13:39:09.435Z,14.78
2023-04-22T13:41:21.470Z,16.71
2023-04-22T13:43:33.544Z,17.68
2023-04-22T13:45:45.707Z,17.68
2023-04-22T13:47:57.829Z,17.03
2023-04-22T13:50:09.835Z,17.35
2023-04-22T13:52:21.889Z,14.45
2023-04-22T13:54:34.014Z,15.42
2023-04-22T13:56:46.083Z,17.03
2023-04-22T13:58:58.310Z,17.35
2023-04-22T14:01:12.117Z,19.61
2023-04-22T14:03:24.503Z,17.68
2023-04-22T14:05:39.012Z,20.58
2023-04-22T14:07:50.796Z,17.03
2023-04-22T14:10:03.171Z,17.68
2023-04-22T14:12:15.258Z,17.35
2023-04-22T14:14:27.365Z,17.03
2023-04-22T14:16:38.579Z,17.03
2023-04-22T14:18:50.656Z,20.58
2023-04-22T14:21:04.247Z,17.03
2023-04-22T14:23:19.730Z,19.61
2023-04-22T14:25:31.406Z,17.03
2023-04-22T14:27:45.391Z,19.61
2023-04-22T14:29:56.584Z,13.81
2023-04-22T14:32:08.628Z,19.29
2023-04-22T14:34:22.601Z,14.45
2023-04-22T14:36:33.788Z,17.35
2023-04-22T14:38:46.854Z,21.22
2023-04-22T14:40:58.961Z,17.03
2023-04-22T14:43:10.999Z,15.74
2023-04-22T14:45:24.566Z,17.35
2023-04-22T14:47:36.724Z,17.03
2023-04-22T14:49:50.239Z,16.71
2023-04-22T14:52:04.386Z,17.03
2023-04-22T14:54:17.468Z,16.71
2023-04-22T14:56:29.566Z,17.35
2023-04-22T14:58:41.654Z,17.03
2023-04-22T15:00:57.367Z,17.68
2023-04-22T15:03:13.004Z,20.25
2023-04-22T15:05:28.497Z,14.78
2023-04-22T15:07:46.096Z,14.13
2023-04-22T15:10:01.007Z,16.39
2023-04-22T15:12:16.745Z,17.03
2023-04-22T15:14:31.448Z,17.03
2023-04-22T15:16:46.951Z,16.39
2023-04-22T15:19:02.639Z,19.29
2023-04-22T15:21:16.599Z,17.68
2023-04-22T15:24:05.322Z,19.61
2023-04-22T15:25:44.918Z,17.03
2023-04-22T15:28:00.454Z,16.71
2023-04-22T15:30:20.432Z,18.00
2023-04-22T15:32:29.068Z,19.61
2023-04-22T15:34:43.171Z,17.03
2023-04-22T15:36:54.286Z,18.96
2023-04-22T15:39:07.827Z,19.61
2023-04-22T15:41:22.309Z,15.10
2023-04-22T15:43:35.004Z,20.25
2023-04-22T15:45:47.084Z,20.58
2023-04-22T15:48:00.237Z,19.29
2023-04-22T15:50:12.221Z,17.03
2023-04-22T15:52:25.316Z,18.64
2023-04-22T15:54:37.390Z,17.35
2023-04-22T15:56:49.454Z,19.29
2023-04-22T15:59:02.429Z,17.03
2023-04-22T16:01:19.401Z,19.29
2023-04-22T16:03:25.832Z,18.64
2023-04-22T16:05:39.260Z,20.90
2023-04-22T16:07:51.350Z,16.06
2023-04-22T16:10:03.450Z,14.78
2023-04-22T16:12:16.540Z,15.42
2023-04-22T16:14:29.591Z,13.16
2023-04-22T16:16:41.713Z,18.00
2023-04-22T16:18:55.269Z,18.96
2023-04-22T16:21:07.390Z,14.13
2023-04-22T16:23:20.300Z,14.13
2023-04-22T16:25:33.028Z,20.90
2023-04-22T16:27:46.575Z,16.06
2023-04-22T16:29:59.577Z,17.03
2023-04-22T16:32:12.273Z,19.29
2023-04-22T16:34:26.722Z,19.29
2023-04-22T16:36:37.916Z,16.39
2023-04-22T16:38:50.014Z,15.42
2023-04-22T16:41:02.181Z,16.39
2023-04-22T16:43:14.745Z,16.39
2023-04-22T16:45:27.738Z,14.78
2023-04-22T16:47:40.746Z,13.49
2023-04-22T16:49:53.414Z,12.52
2023-04-22T16:52:06.659Z,13.16
2023-04-22T16:54:20.225Z,18.96
2023-04-22T16:56:35.681Z,15.74
2023-04-22T16:58:47.379Z,18.00
2023-04-22T17:01:03.026Z,15.42
2023-04-22T17:03:17.574Z,15.42
2023-04-22T17:05:30.242Z,12.52
2023-04-22T17:07:43.231Z,18.32
2023-04-22T17:09:57.807Z,14.78
2023-04-22T17:12:12.432Z,14.45
2023-04-22T17:14:36.459Z,14.78
2023-04-22T17:16:51.983Z,14.78
2023-04-22T17:19:05.046Z,14.78
2023-04-22T17:21:19.730Z,14.45
2023-04-22T17:23:32.883Z,17.03
2023-04-22T17:25:46.877Z,14.13
2023-04-22T17:28:00.991Z,14.13
2023-04-22T17:30:13.149Z,13.81
2023-04-22T17:32:28.657Z,14.13
2023-04-22T17:34:40.601Z,16.71
2023-04-22T17:36:55.978Z,13.16
2023-04-22T17:39:08.013Z,14.13
2023-04-22T17:41:20.078Z,14.13
2023-04-22T17:43:32.149Z,14.78
2023-04-22T17:45:44.252Z,12.84
2023-04-22T17:47:57.885Z,13.49
2023-04-22T17:50:13.510Z,13.81
2023-04-22T17:52:29.041Z,13.49
2023-04-22T17:54:42.937Z,14.13
2023-04-22T17:56:58.531Z,12.84
2023-04-22T17:59:14.098Z,13.81
2023-04-22T18:14:10.841Z,12.20
2023-04-22T18:16:23.807Z,12.52
2023-04-22T18:18:39.494Z,12.52
2023-04-22T18:21:00.737Z,11.23
2023-04-22T18:23:22.689Z,9.30
2023-04-22T18:25:32.770Z,12.52
2023-04-22T18:27:36.278Z,12.52
2023-04-22T18:47:38.546Z,13.49
2023-04-22T18:50:20.213Z,12.20
2023-04-22T18:53:54.647Z,11.87
2023-04-22T18:55:38.164Z,11.23
2023-04-22T18:57:52.764Z,7.04
2023-04-22T19:00:08.925Z,11.87
2023-04-22T19:02:24.490Z,9.62
2023-04-22T19:04:39.814Z,12.20
2023-04-22T19:06:55.065Z,7.04
2023-04-22T19:09:10.701Z,16.06
2023-04-22T19:11:26.230Z,12.20
2023-04-22T19:14:17.650Z,11.87
2023-04-22T19:16:00.966Z,10.26
2023-04-22T19:18:15.544Z,11.23
2023-04-22T19:20:27.653Z,16.06
2023-04-22T19:22:43.217Z,12.52
2023-04-22T19:24:59.765Z,16.06
2023-04-22T19:27:15.889Z,12.20
2023-04-22T19:29:32.416Z,11.87
2023-04-22T19:32:06.577Z,15.74
2023-04-22T19:34:08.757Z,11.23
2023-04-22T19:36:15.845Z,10.59
2023-04-22T19:38:31.359Z,11.87
2023-04-22T19:40:47.858Z,11.55
2023-04-22T19:43:02.474Z,11.55
2023-04-22T19:45:18.053Z,12.20
2023-04-22T19:47:31.641Z,13.49
2023-04-22T19:49:43.963Z,11.23
2023-04-22T19:51:56.669Z,10.91
2023-04-22T19:54:07.863Z,16.71
2023-04-22T19:56:21.438Z,10.91
2023-04-22T19:58:34.411Z,11.23
2023-04-22T20:00:46.633Z,11.23
2023-04-22T20:02:58.810Z,11.55
2023-04-22T20:05:10.742Z,10.91
2023-04-22T20:07:22.828Z,7.04
2023-04-22T20:09:34.908Z,6.72
2023-04-22T20:11:47.027Z,16.39
2023-04-22T20:13:59.069Z,10.59
2023-04-22T20:16:11.179Z,10.91
2023-04-22T20:18:23.250Z,13.81
2023-04-22T20:20:36.229Z,14.13
2023-04-22T20:22:47.729Z,10.26
2023-04-22T20:24:59.776Z,10.59
2023-04-22T20:27:11.872Z,13.16
2023-04-22T20:29:23.947Z,9.94
2023-04-22T20:31:36.042Z,15.42
2023-04-22T20:33:48.129Z,16.06
2023-04-22T20:36:00.180Z,14.78
2023-04-22T20:38:12.273Z,9.62
2023-04-22T20:40:25.250Z,10.59
2023-04-22T20:42:37.950Z,7.69
2023-04-22T20:44:50.929Z,16.06
2023-04-22T20:47:02.095Z,10.26
2023-04-22T20:49:14.165Z,10.59
2023-04-22T20:51:26.248Z,14.78
2023-04-22T20:53:38.323Z,10.59
2023-04-22T20:55:51.496Z,10.59
2023-04-22T20:58:05.966Z,12.20
2023-04-22T21:00:17.149Z,5.43
2023-04-22T21:02:29.370Z,10.26
2023-04-22T21:04:41.568Z,9.94
2023-04-22T21:06:53.421Z,10.59
2023-04-22T21:09:06.427Z,16.06
2023-04-22T21:11:18.553Z,9.62
2023-04-22T21:13:30.642Z,10.26
2023-04-22T21:15:42.721Z,15.10
2023-04-22T21:17:54.837Z,10.26
2023-04-22T21:20:06.873Z,15.74
2023-04-22T21:22:19.468Z,10.91
2023-04-22T21:24:31.928Z,9.94
2023-04-22T21:26:43.109Z,9.30
2023-04-22T21:28:55.217Z,10.59
2023-04-22T21:31:07.285Z,9.62
2023-04-22T21:33:19.356Z,10.26
2023-04-22T21:35:31.435Z,11.55
2023-04-22T21:37:43.559Z,9.62
2023-04-22T21:39:55.686Z,9.94
2023-04-22T21:42:08.339Z,4.79
2023-04-22T21:44:19.813Z,10.59
2023-04-22T21:46:31.888Z,4.46
2023-04-22T21:48:43.977Z,10.26
2023-04-22T21:50:56.069Z,15.10
2023-04-22T21:53:08.155Z,15.74
2023-04-22T21:55:21.720Z,10.26
2023-04-22T21:57:32.873Z,14.78
2023-04-22T21:59:46.259Z,10.59
2023-04-22T22:01:56.509Z,9.30
2023-04-22T22:04:08.689Z,9.62
2023-04-22T22:06:20.691Z,11.23
2023-04-22T22:08:33.035Z,10.59
2023-04-22T22:10:46.009Z,9.94
2023-04-22T22:12:57.778Z,16.06
2023-04-22T22:15:09.301Z,9.94
2023-04-22T22:17:21.417Z,4.79
2023-04-22T22:19:33.754Z,10.59
2023-04-22T22:21:47.359Z,10.59
2023-04-22T22:23:58.936Z,7.04
2023-04-22T22:26:10.992Z,5.43
2023-04-22T22:28:23.948Z,11.23
2023-04-22T22:30:35.154Z,14.13
2023-04-22T22:32:47.282Z,16.06
2023-04-22T22:35:00.316Z,14.13
2023-04-22T22:37:11.389Z,9.62
2023-04-22T22:39:23.481Z,11.23
2023-04-22T22:41:35.553Z,11.23
2023-04-22T22:43:48.540Z,14.45
2023-04-22T22:45:59.765Z,11.23
2023-04-22T22:48:11.788Z,10.59
2023-04-22T22:50:23.885Z,10.91
2023-04-22T22:52:36.850Z,10.59
2023-04-22T22:54:48.035Z,11.23
2023-04-22T22:57:00.155Z,9.94
2023-04-22T22:59:13.720Z,11.23
2023-04-22T23:01:25.279Z,9.30
2023-04-22T23:03:37.763Z,10.91
2023-04-22T23:05:49.707Z,10.59
2023-04-22T23:08:01.900Z,11.23
2023-04-22T23:10:13.861Z,13.16
2023-04-22T23:12:25.985Z,6.40
2023-04-22T23:14:38.041Z,16.71
2023-04-22T23:16:50.124Z,6.40
2023-04-22T23:19:02.202Z,11.23
2023-04-22T23:21:15.727Z,11.87
2023-04-22T23:23:27.299Z,10.91
2023-04-22T23:25:39.390Z,11.55
2023-04-22T23:27:51.506Z,15.42
2023-04-22T23:30:03.618Z,9.30
2023-04-22T23:32:16.550Z,10.91
2023-04-22T23:34:28.730Z,11.23
2023-04-22T23:36:40.745Z,11.55
2023-04-22T23:38:51.925Z,13.49
2023-04-22T23:41:05.556Z,11.23
2023-04-22T23:43:17.595Z,15.74
2023-04-22T23:45:29.644Z,10.91
2023-04-22T23:47:42.680Z,11.23
2023-04-22T23:49:53.845Z,14.13
2023-04-22T23:52:06.494Z,10.91
2023-04-22T23:54:18.900Z,10.91
2023-04-22T23:56:30.075Z,15.74
2023-04-22T23:58:43.137Z,10.26
